sensor_id;sensor_type;location;lat;lon;timestamp;temperature;humidity
77582;DHT22;66726;52.388;9.986;2023-04-28T00:00:03;8.00;84.10
77582;DHT22;66726;52.388;9.986;2023-04-28T00:02:36;8.00;84.10
77582;DHT22;66726;52.388;9.986;2023-04-28T00:05:09;8.00;84.50
77582;DHT22;66726;52.388;9.986;2023-04-28T00:07:41;8.00;84.80
77582;DHT22;66726;52.388;9.986;2023-04-28T00:10:15;8.10;85.20
77582;DHT22;66726;52.388;9.986;2023-04-28T00:12:47;8.00;86.20
77582;DHT22;66726;52.388;9.986;2023-04-28T00:15:19;8.00;86.10
77582;DHT22;66726;52.388;9.986;2023-04-28T00:17:51;8.00;86.20
77582;DHT22;66726;52.388;9.986;2023-04-28T00:20:23;8.00;86.40
77582;DHT22;66726;52.388;9.986;2023-04-28T00:22:55;8.00;86.10
77582;DHT22;66726;52.388;9.986;2023-04-28T00:25:28;8.00;86.90
77582;DHT22;66726;52.388;9.986;2023-04-28T00:28:00;8.00;87.20
77582;DHT22;66726;52.388;9.986;2023-04-28T00:30:32;8.00;87.90
77582;DHT22;66726;52.388;9.986;2023-04-28T00:33:04;8.10;87.70
77582;DHT22;66726;52.388;9.986;2023-04-28T00:35:36;8.10;87.00
77582;DHT22;66726;52.388;9.986;2023-04-28T00:38:08;8.00;88.60
77582;DHT22;66726;52.388;9.986;2023-04-28T00:40:41;8.00;89.20
77582;DHT22;66726;52.388;9.986;2023-04-28T00:43:13;8.00;89.70
77582;DHT22;66726;52.388;9.986;2023-04-28T00:45:45;7.90;89.60
77582;DHT22;66726;52.388;9.986;2023-04-28T00:48:18;7.90;89.60
77582;DHT22;66726;52.388;9.986;2023-04-28T00:50:51;7.90;89.30
77582;DHT22;66726;52.388;9.986;2023-04-28T00:53:23;7.90;88.10
77582;DHT22;66726;52.388;9.986;2023-04-28T00:55:57;7.90;87.90
77582;DHT22;66726;52.388;9.986;2023-04-28T00:58:31;7.90;88.60
77582;DHT22;66726;52.388;9.986;2023-04-28T01:01:04;7.90;87.70
77582;DHT22;66726;52.388;9.986;2023-04-28T01:03:38;7.90;87.50
77582;DHT22;66726;52.388;9.986;2023-04-28T01:06:11;7.90;88.20
77582;DHT22;66726;52.388;9.986;2023-04-28T01:08:49;7.90;90.00
77582;DHT22;66726;52.388;9.986;2023-04-28T01:11:22;7.90;90.20
77582;DHT22;66726;52.388;9.986;2023-04-28T01:13:54;7.90;90.30
77582;DHT22;66726;52.388;9.986;2023-04-28T01:16:27;7.90;90.20
77582;DHT22;66726;52.388;9.986;2023-04-28T01:19:01;7.90;90.20
77582;DHT22;66726;52.388;9.986;2023-04-28T01:21:36;7.90;90.20
77582;DHT22;66726;52.388;9.986;2023-04-28T01:24:09;7.90;90.30
77582;DHT22;66726;52.388;9.986;2023-04-28T01:26:41;7.90;89.80
77582;DHT22;66726;52.388;9.986;2023-04-28T01:29:13;7.90;90.20
77582;DHT22;66726;52.388;9.986;2023-04-28T01:31:45;7.90;90.00
77582;DHT22;66726;52.388;9.986;2023-04-28T01:34:17;7.90;90.00
77582;DHT22;66726;52.388;9.986;2023-04-28T01:36:49;7.90;89.40
77582;DHT22;66726;52.388;9.986;2023-04-28T01:39:31;7.90;88.60
77582;DHT22;66726;52.388;9.986;2023-04-28T01:42:03;7.80;88.90
77582;DHT22;66726;52.388;9.986;2023-04-28T01:44:35;7.90;88.90
77582;DHT22;66726;52.388;9.986;2023-04-28T01:47:07;7.90;88.70
77582;DHT22;66726;52.388;9.986;2023-04-28T01:49:39;7.80;87.50
77582;DHT22;66726;52.388;9.986;2023-04-28T01:52:11;7.90;87.80
77582;DHT22;66726;52.388;9.986;2023-04-28T01:54:44;7.90;89.10
77582;DHT22;66726;52.388;9.986;2023-04-28T01:57:16;7.80;89.00
77582;DHT22;66726;52.388;9.986;2023-04-28T01:59:49;7.90;88.90
77582;DHT22;66726;52.388;9.986;2023-04-28T02:02:21;7.90;88.20
77582;DHT22;66726;52.388;9.986;2023-04-28T02:04:53;7.90;87.30
77582;DHT22;66726;52.388;9.986;2023-04-28T02:07:25;7.90;87.40
77582;DHT22;66726;52.388;9.986;2023-04-28T02:09:58;7.90;87.60
77582;DHT22;66726;52.388;9.986;2023-04-28T02:12:30;7.80;86.40
77582;DHT22;66726;52.388;9.986;2023-04-28T02:15:02;7.90;87.30
77582;DHT22;66726;52.388;9.986;2023-04-28T02:17:35;7.80;86.20
77582;DHT22;66726;52.388;9.986;2023-04-28T02:20:08;7.80;87.30
77582;DHT22;66726;52.388;9.986;2023-04-28T02:22:42;7.80;87.00
77582;DHT22;66726;52.388;9.986;2023-04-28T02:25:16;7.80;87.10
77582;DHT22;66726;52.388;9.986;2023-04-28T02:27:47;7.80;87.00
77582;DHT22;66726;52.388;9.986;2023-04-28T02:30:19;7.80;86.60
77582;DHT22;66726;52.388;9.986;2023-04-28T02:32:51;7.80;87.30
77582;DHT22;66726;52.388;9.986;2023-04-28T02:35:23;7.80;87.30
77582;DHT22;66726;52.388;9.986;2023-04-28T02:37:56;7.80;86.50
77582;DHT22;66726;52.388;9.986;2023-04-28T02:40:29;7.80;86.60
77582;DHT22;66726;52.388;9.986;2023-04-28T02:43:00;7.80;86.50
77582;DHT22;66726;52.388;9.986;2023-04-28T02:45:32;7.80;86.60
77582;DHT22;66726;52.388;9.986;2023-04-28T02:48:04;7.80;86.30
77582;DHT22;66726;52.388;9.986;2023-04-28T02:50:36;7.80;86.30
77582;DHT22;66726;52.388;9.986;2023-04-28T02:53:08;7.80;86.90
77582;DHT22;66726;52.388;9.986;2023-04-28T02:55:39;7.80;86.00
77582;DHT22;66726;52.388;9.986;2023-04-28T02:58:11;7.80;87.10
77582;DHT22;66726;52.388;9.986;2023-04-28T03:00:45;7.80;87.20
77582;DHT22;66726;52.388;9.986;2023-04-28T03:03:17;7.70;86.10
77582;DHT22;66726;52.388;9.986;2023-04-28T03:05:49;7.70;86.40
77582;DHT22;66726;52.388;9.986;2023-04-28T03:08:21;7.80;87.30
77582;DHT22;66726;52.388;9.986;2023-04-28T03:10:54;7.70;86.30
77582;DHT22;66726;52.388;9.986;2023-04-28T03:13:26;7.80;87.00
77582;DHT22;66726;52.388;9.986;2023-04-28T03:15:58;7.80;87.50
77582;DHT22;66726;52.388;9.986;2023-04-28T03:18:30;7.80;88.20
77582;DHT22;66726;52.388;9.986;2023-04-28T03:21:02;7.80;89.30
77582;DHT22;66726;52.388;9.986;2023-04-28T03:23:34;7.70;88.50
77582;DHT22;66726;52.388;9.986;2023-04-28T03:26:07;7.60;88.30
77582;DHT22;66726;52.388;9.986;2023-04-28T03:28:39;7.70;89.50
77582;DHT22;66726;52.388;9.986;2023-04-28T03:31:13;7.70;90.00
77582;DHT22;66726;52.388;9.986;2023-04-28T03:33:45;7.70;90.00
77582;DHT22;66726;52.388;9.986;2023-04-28T03:36:16;7.70;89.70
77582;DHT22;66726;52.388;9.986;2023-04-28T03:38:48;7.70;90.10
77582;DHT22;66726;52.388;9.986;2023-04-28T03:41:21;7.70;89.30
77582;DHT22;66726;52.388;9.986;2023-04-28T03:43:53;7.80;90.00
77582;DHT22;66726;52.388;9.986;2023-04-28T03:46:25;7.70;90.20
77582;DHT22;66726;52.388;9.986;2023-04-28T03:48:57;7.70;89.10
77582;DHT22;66726;52.388;9.986;2023-04-28T03:51:29;7.70;89.40
77582;DHT22;66726;52.388;9.986;2023-04-28T03:54:01;7.70;89.20
77582;DHT22;66726;52.388;9.986;2023-04-28T03:56:35;7.70;89.10
77582;DHT22;66726;52.388;9.986;2023-04-28T03:59:06;7.60;89.00
77582;DHT22;66726;52.388;9.986;2023-04-28T04:01:39;7.60;88.70
77582;DHT22;66726;52.388;9.986;2023-04-28T04:04:11;7.60;88.30
77582;DHT22;66726;52.388;9.986;2023-04-28T04:06:43;7.60;89.60
77582;DHT22;66726;52.388;9.986;2023-04-28T04:09:15;7.60;88.60
77582;DHT22;66726;52.388;9.986;2023-04-28T04:11:49;7.60;89.10
77582;DHT22;66726;52.388;9.986;2023-04-28T04:14:21;7.60;89.00
77582;DHT22;66726;52.388;9.986;2023-04-28T04:16:53;7.60;88.40
77582;DHT22;66726;52.388;9.986;2023-04-28T04:19:24;7.50;88.50
77582;DHT22;66726;52.388;9.986;2023-04-28T04:21:56;7.50;88.50
77582;DHT22;66726;52.388;9.986;2023-04-28T04:24:28;7.50;88.90
77582;DHT22;66726;52.388;9.986;2023-04-28T04:27:01;7.50;88.00
77582;DHT22;66726;52.388;9.986;2023-04-28T04:29:33;7.50;89.30
77582;DHT22;66726;52.388;9.986;2023-04-28T04:32:06;7.50;88.40
77582;DHT22;66726;52.388;9.986;2023-04-28T04:34:38;7.50;88.30
77582;DHT22;66726;52.388;9.986;2023-04-28T04:37:10;7.50;89.10
77582;DHT22;66726;52.388;9.986;2023-04-28T04:39:41;7.50;89.50
77582;DHT22;66726;52.388;9.986;2023-04-28T04:42:15;7.50;88.90
77582;DHT22;66726;52.388;9.986;2023-04-28T04:44:53;7.50;88.80
77582;DHT22;66726;52.388;9.986;2023-04-28T04:47:25;7.50;88.80
77582;DHT22;66726;52.388;9.986;2023-04-28T04:49:56;7.60;89.10
77582;DHT22;66726;52.388;9.986;2023-04-28T04:52:28;7.60;88.50
77582;DHT22;66726;52.388;9.986;2023-04-28T04:55:00;7.60;88.90
77582;DHT22;66726;52.388;9.986;2023-04-28T04:57:34;7.60;89.30
77582;DHT22;66726;52.388;9.986;2023-04-28T05:00:06;7.70;89.20
77582;DHT22;66726;52.388;9.986;2023-04-28T05:02:39;7.70;89.10
77582;DHT22;66726;52.388;9.986;2023-04-28T05:05:12;7.70;88.80
77582;DHT22;66726;52.388;9.986;2023-04-28T05:07:49;7.70;88.70
77582;DHT22;66726;52.388;9.986;2023-04-28T05:10:21;7.80;89.60
77582;DHT22;66726;52.388;9.986;2023-04-28T05:12:54;7.80;89.30
77582;DHT22;66726;52.388;9.986;2023-04-28T05:15:26;7.80;89.90
77582;DHT22;66726;52.388;9.986;2023-04-28T05:17:59;7.80;89.30
77582;DHT22;66726;52.388;9.986;2023-04-28T05:20:37;7.80;89.00
77582;DHT22;66726;52.388;9.986;2023-04-28T05:23:09;7.90;89.30
77582;DHT22;66726;52.388;9.986;2023-04-28T05:25:40;7.90;89.60
77582;DHT22;66726;52.388;9.986;2023-04-28T05:28:13;7.90;89.60
77582;DHT22;66726;52.388;9.986;2023-04-28T05:30:48;7.90;90.10
77582;DHT22;66726;52.388;9.986;2023-04-28T05:33:19;7.90;90.10
77582;DHT22;66726;52.388;9.986;2023-04-28T05:35:52;7.90;89.60
77582;DHT22;66726;52.388;9.986;2023-04-28T05:38:24;8.00;90.00
77582;DHT22;66726;52.388;9.986;2023-04-28T05:40:56;8.00;89.80
77582;DHT22;66726;52.388;9.986;2023-04-28T05:43:29;8.00;89.60
77582;DHT22;66726;52.388;9.986;2023-04-28T05:46:01;8.00;90.10
77582;DHT22;66726;52.388;9.986;2023-04-28T05:48:42;8.00;90.10
77582;DHT22;66726;52.388;9.986;2023-04-28T05:51:14;8.10;90.00
77582;DHT22;66726;52.388;9.986;2023-04-28T05:53:46;8.10;89.50
77582;DHT22;66726;52.388;9.986;2023-04-28T05:56:18;8.10;89.40
77582;DHT22;66726;52.388;9.986;2023-04-28T05:58:51;8.10;90.30
77582;DHT22;66726;52.388;9.986;2023-04-28T06:01:24;8.10;90.20
77582;DHT22;66726;52.388;9.986;2023-04-28T06:03:56;8.20;90.60
77582;DHT22;66726;52.388;9.986;2023-04-28T06:06:28;8.20;90.20
77582;DHT22;66726;52.388;9.986;2023-04-28T06:09:01;8.20;89.90
77582;DHT22;66726;52.388;9.986;2023-04-28T06:11:33;8.20;90.10
77582;DHT22;66726;52.388;9.986;2023-04-28T06:14:06;8.30;90.10
77582;DHT22;66726;52.388;9.986;2023-04-28T06:16:38;8.30;90.10
77582;DHT22;66726;52.388;9.986;2023-04-28T06:19:08;8.40;90.50
77582;DHT22;66726;52.388;9.986;2023-04-28T06:21:42;8.40;90.40
77582;DHT22;66726;52.388;9.986;2023-04-28T06:24:14;8.40;90.20
77582;DHT22;66726;52.388;9.986;2023-04-28T06:26:46;8.50;90.50
77582;DHT22;66726;52.388;9.986;2023-04-28T06:29:19;8.50;90.60
77582;DHT22;66726;52.388;9.986;2023-04-28T06:31:51;8.60;90.60
77582;DHT22;66726;52.388;9.986;2023-04-28T06:34:25;8.70;90.30
77582;DHT22;66726;52.388;9.986;2023-04-28T06:36:59;8.80;90.20
77582;DHT22;66726;52.388;9.986;2023-04-28T06:39:31;8.80;90.00
77582;DHT22;66726;52.388;9.986;2023-04-28T06:42:03;8.80;90.00
77582;DHT22;66726;52.388;9.986;2023-04-28T06:44:36;8.90;89.30
77582;DHT22;66726;52.388;9.986;2023-04-28T06:47:08;8.90;89.90
77582;DHT22;66726;52.388;9.986;2023-04-28T06:49:39;9.00;90.10
77582;DHT22;66726;52.388;9.986;2023-04-28T06:52:13;9.00;90.10
77582;DHT22;66726;52.388;9.986;2023-04-28T06:54:44;9.00;90.10
77582;DHT22;66726;52.388;9.986;2023-04-28T06:57:17;9.10;89.20
77582;DHT22;66726;52.388;9.986;2023-04-28T06:59:50;9.20;88.70
77582;DHT22;66726;52.388;9.986;2023-04-28T07:02:22;9.30;89.50
77582;DHT22;66726;52.388;9.986;2023-04-28T07:04:54;9.30;89.30
77582;DHT22;66726;52.388;9.986;2023-04-28T07:07:26;9.40;90.00
77582;DHT22;66726;52.388;9.986;2023-04-28T07:09:58;9.40;90.20
77582;DHT22;66726;52.388;9.986;2023-04-28T07:12:30;9.50;90.50
77582;DHT22;66726;52.388;9.986;2023-04-28T07:15:03;9.60;88.90
77582;DHT22;66726;52.388;9.986;2023-04-28T07:17:38;9.60;89.50
77582;DHT22;66726;52.388;9.986;2023-04-28T07:20:10;9.70;88.40
77582;DHT22;66726;52.388;9.986;2023-04-28T07:22:43;9.80;87.60
77582;DHT22;66726;52.388;9.986;2023-04-28T07:25:15;9.80;88.70
77582;DHT22;66726;52.388;9.986;2023-04-28T07:27:47;9.80;88.60
77582;DHT22;66726;52.388;9.986;2023-04-28T07:30:20;9.90;87.90
77582;DHT22;66726;52.388;9.986;2023-04-28T07:32:56;9.90;87.90
77582;DHT22;66726;52.388;9.986;2023-04-28T07:35:28;9.90;88.40
77582;DHT22;66726;52.388;9.986;2023-04-28T07:38:00;10.00;88.40
77582;DHT22;66726;52.388;9.986;2023-04-28T07:40:33;10.00;89.20
77582;DHT22;66726;52.388;9.986;2023-04-28T07:43:05;10.10;90.00
77582;DHT22;66726;52.388;9.986;2023-04-28T07:45:39;10.10;89.00
77582;DHT22;66726;52.388;9.986;2023-04-28T07:48:13;10.20;88.60
77582;DHT22;66726;52.388;9.986;2023-04-28T07:50:45;10.20;88.40
77582;DHT22;66726;52.388;9.986;2023-04-28T07:53:17;10.20;87.00
77582;DHT22;66726;52.388;9.986;2023-04-28T07:55:49;10.30;86.40
77582;DHT22;66726;52.388;9.986;2023-04-28T07:58:20;10.30;85.70
77582;DHT22;66726;52.388;9.986;2023-04-28T08:00:54;10.30;86.50
77582;DHT22;66726;52.388;9.986;2023-04-28T08:03:26;10.30;86.90
77582;DHT22;66726;52.388;9.986;2023-04-28T08:05:59;10.40;88.10
77582;DHT22;66726;52.388;9.986;2023-04-28T08:08:32;10.50;87.10
77582;DHT22;66726;52.388;9.986;2023-04-28T08:11:04;10.60;89.00
77582;DHT22;66726;52.388;9.986;2023-04-28T08:13:36;10.70;85.60
77582;DHT22;66726;52.388;9.986;2023-04-28T08:16:09;10.90;86.10
77582;DHT22;66726;52.388;9.986;2023-04-28T08:18:41;10.90;86.50
77582;DHT22;66726;52.388;9.986;2023-04-28T08:21:15;11.00;85.90
77582;DHT22;66726;52.388;9.986;2023-04-28T08:23:47;11.10;84.50
77582;DHT22;66726;52.388;9.986;2023-04-28T08:26:19;11.10;85.50
77582;DHT22;66726;52.388;9.986;2023-04-28T08:28:51;11.20;86.60
77582;DHT22;66726;52.388;9.986;2023-04-28T08:31:25;11.20;84.20
77582;DHT22;66726;52.388;9.986;2023-04-28T08:33:57;11.20;82.20
77582;DHT22;66726;52.388;9.986;2023-04-28T08:36:29;11.30;84.30
77582;DHT22;66726;52.388;9.986;2023-04-28T08:39:03;11.30;83.70
77582;DHT22;66726;52.388;9.986;2023-04-28T08:41:40;11.30;84.50
77582;DHT22;66726;52.388;9.986;2023-04-28T08:44:12;11.40;86.60
77582;DHT22;66726;52.388;9.986;2023-04-28T08:46:47;11.40;85.90
77582;DHT22;66726;52.388;9.986;2023-04-28T08:49:30;11.50;85.00
77582;DHT22;66726;52.388;9.986;2023-04-28T08:52:08;11.50;83.60
77582;DHT22;66726;52.388;9.986;2023-04-28T08:54:45;11.50;83.10
77582;DHT22;66726;52.388;9.986;2023-04-28T08:57:21;11.50;84.70
77582;DHT22;66726;52.388;9.986;2023-04-28T08:59:55;11.60;83.10
77582;DHT22;66726;52.388;9.986;2023-04-28T09:02:28;11.60;84.40
77582;DHT22;66726;52.388;9.986;2023-04-28T09:05:00;11.70;83.10
77582;DHT22;66726;52.388;9.986;2023-04-28T09:07:32;11.70;85.10
77582;DHT22;66726;52.388;9.986;2023-04-28T09:10:16;11.80;84.90
77582;DHT22;66726;52.388;9.986;2023-04-28T09:12:52;11.90;84.30
77582;DHT22;66726;52.388;9.986;2023-04-28T09:15:30;11.90;85.00
77582;DHT22;66726;52.388;9.986;2023-04-28T09:18:05;12.00;84.60
77582;DHT22;66726;52.388;9.986;2023-04-28T09:20:45;12.10;84.00
77582;DHT22;66726;52.388;9.986;2023-04-28T09:23:18;12.10;83.20
77582;DHT22;66726;52.388;9.986;2023-04-28T09:25:56;12.20;81.70
77582;DHT22;66726;52.388;9.986;2023-04-28T09:28:30;12.30;82.20
77582;DHT22;66726;52.388;9.986;2023-04-28T09:31:04;12.30;84.70
77582;DHT22;66726;52.388;9.986;2023-04-28T09:33:59;12.40;85.00
77582;DHT22;66726;52.388;9.986;2023-04-28T09:36:31;12.50;86.30
77582;DHT22;66726;52.388;9.986;2023-04-28T09:39:03;12.60;83.60
77582;DHT22;66726;52.388;9.986;2023-04-28T09:41:41;12.60;83.70
77582;DHT22;66726;52.388;9.986;2023-04-28T09:44:15;12.70;83.70
77582;DHT22;66726;52.388;9.986;2023-04-28T09:46:49;12.70;82.50
77582;DHT22;66726;52.388;9.986;2023-04-28T09:49:22;12.70;83.10
77582;DHT22;66726;52.388;9.986;2023-04-28T09:51:54;12.80;81.30
77582;DHT22;66726;52.388;9.986;2023-04-28T09:54:41;12.80;82.60
77582;DHT22;66726;52.388;9.986;2023-04-28T09:57:13;12.80;81.90
77582;DHT22;66726;52.388;9.986;2023-04-28T09:59:48;12.90;81.60
77582;DHT22;66726;52.388;9.986;2023-04-28T10:02:22;12.90;81.90
77582;DHT22;66726;52.388;9.986;2023-04-28T10:04:59;13.00;82.60
77582;DHT22;66726;52.388;9.986;2023-04-28T10:07:33;13.00;83.70
77582;DHT22;66726;52.388;9.986;2023-04-28T10:10:07;13.00;80.90
77582;DHT22;66726;52.388;9.986;2023-04-28T10:12:42;13.00;80.10
77582;DHT22;66726;52.388;9.986;2023-04-28T10:15:14;13.00;81.50
77582;DHT22;66726;52.388;9.986;2023-04-28T10:17:47;13.10;81.00
77582;DHT22;66726;52.388;9.986;2023-04-28T10:20:22;13.10;80.20
77582;DHT22;66726;52.388;9.986;2023-04-28T10:23:04;13.10;81.60
77582;DHT22;66726;52.388;9.986;2023-04-28T10:25:55;13.10;82.50
77582;DHT22;66726;52.388;9.986;2023-04-28T10:28:28;13.10;80.60
77582;DHT22;66726;52.388;9.986;2023-04-28T10:31:13;13.10;80.00
77582;DHT22;66726;52.388;9.986;2023-04-28T10:33:48;13.20;81.50
77582;DHT22;66726;52.388;9.986;2023-04-28T10:36:47;13.20;81.70
77582;DHT22;66726;52.388;9.986;2023-04-28T10:39:20;13.30;80.50
77582;DHT22;66726;52.388;9.986;2023-04-28T10:41:54;13.30;79.20
77582;DHT22;66726;52.388;9.986;2023-04-28T10:44:42;13.30;81.20
77582;DHT22;66726;52.388;9.986;2023-04-28T10:47:13;13.40;79.10
77582;DHT22;66726;52.388;9.986;2023-04-28T10:50:08;13.40;81.70
77582;DHT22;66726;52.388;9.986;2023-04-28T10:52:51;13.50;81.50
77582;DHT22;66726;52.388;9.986;2023-04-28T10:55:28;13.50;81.80
77582;DHT22;66726;52.388;9.986;2023-04-28T10:58:32;13.60;82.20
77582;DHT22;66726;52.388;9.986;2023-04-28T11:01:29;13.60;83.30
77582;DHT22;66726;52.388;9.986;2023-04-28T11:04:06;13.60;81.60
77582;DHT22;66726;52.388;9.986;2023-04-28T11:06:42;13.70;82.20
77582;DHT22;66726;52.388;9.986;2023-04-28T11:09:48;13.70;84.50
77582;DHT22;66726;52.388;9.986;2023-04-28T11:12:21;13.80;83.20
77582;DHT22;66726;52.388;9.986;2023-04-28T11:14:52;13.90;83.10
77582;DHT22;66726;52.388;9.986;2023-04-28T11:17:38;14.00;82.50
77582;DHT22;66726;52.388;9.986;2023-04-28T11:20:13;14.00;83.70
77582;DHT22;66726;52.388;9.986;2023-04-28T11:22:53;14.00;85.10
77582;DHT22;66726;52.388;9.986;2023-04-28T11:25:26;14.00;85.60
77582;DHT22;66726;52.388;9.986;2023-04-28T11:28:16;14.00;86.30
77582;DHT22;66726;52.388;9.986;2023-04-28T11:30:48;14.00;83.20
77582;DHT22;66726;52.388;9.986;2023-04-28T11:33:21;14.00;83.60
77582;DHT22;66726;52.388;9.986;2023-04-28T11:35:53;14.00;85.00
77582;DHT22;66726;52.388;9.986;2023-04-28T11:38:25;14.00;83.80
77582;DHT22;66726;52.388;9.986;2023-04-28T11:40:59;14.10;84.20
77582;DHT22;66726;52.388;9.986;2023-04-28T11:43:33;14.20;85.70
77582;DHT22;66726;52.388;9.986;2023-04-28T11:46:17;14.10;82.60
77582;DHT22;66726;52.388;9.986;2023-04-28T11:48:59;14.10;83.70
77582;DHT22;66726;52.388;9.986;2023-04-28T11:51:35;14.10;81.90
77582;DHT22;66726;52.388;9.986;2023-04-28T11:54:07;14.10;83.00
77582;DHT22;66726;52.388;9.986;2023-04-28T11:56:43;14.10;82.10
77582;DHT22;66726;52.388;9.986;2023-04-28T11:59:15;14.10;83.00
77582;DHT22;66726;52.388;9.986;2023-04-28T12:01:50;14.00;82.40
77582;DHT22;66726;52.388;9.986;2023-04-28T12:04:29;14.10;83.70
77582;DHT22;66726;52.388;9.986;2023-04-28T12:07:06;14.10;80.90
77582;DHT22;66726;52.388;9.986;2023-04-28T12:09:41;14.00;81.30
77582;DHT22;66726;52.388;9.986;2023-04-28T12:12:27;14.10;82.30
77582;DHT22;66726;52.388;9.986;2023-04-28T12:15:05;14.10;81.60
77582;DHT22;66726;52.388;9.986;2023-04-28T12:17:39;14.10;80.90
77582;DHT22;66726;52.388;9.986;2023-04-28T12:20:33;14.10;80.70
77582;DHT22;66726;52.388;9.986;2023-04-28T12:23:05;14.10;80.60
77582;DHT22;66726;52.388;9.986;2023-04-28T12:25:44;14.20;80.80
77582;DHT22;66726;52.388;9.986;2023-04-28T12:28:17;14.20;81.20
77582;DHT22;66726;52.388;9.986;2023-04-28T12:30:49;14.20;82.00
77582;DHT22;66726;52.388;9.986;2023-04-28T12:33:32;14.30;81.20
77582;DHT22;66726;52.388;9.986;2023-04-28T12:36:07;14.30;81.20
77582;DHT22;66726;52.388;9.986;2023-04-28T12:38:48;14.30;80.80
77582;DHT22;66726;52.388;9.986;2023-04-28T12:41:20;14.30;81.70
77582;DHT22;66726;52.388;9.986;2023-04-28T12:43:55;14.40;81.10
77582;DHT22;66726;52.388;9.986;2023-04-28T12:46:27;14.40;80.90
77582;DHT22;66726;52.388;9.986;2023-04-28T12:48:59;14.50;82.20
77582;DHT22;66726;52.388;9.986;2023-04-28T12:51:31;14.50;82.30
77582;DHT22;66726;52.388;9.986;2023-04-28T12:54:06;14.60;81.90
77582;DHT22;66726;52.388;9.986;2023-04-28T12:56:38;14.60;82.20
77582;DHT22;66726;52.388;9.986;2023-04-28T12:59:11;14.70;82.70
77582;DHT22;66726;52.388;9.986;2023-04-28T13:01:43;14.80;84.90
77582;DHT22;66726;52.388;9.986;2023-04-28T13:04:15;14.80;85.50
77582;DHT22;66726;52.388;9.986;2023-04-28T13:06:48;14.80;85.30
77582;DHT22;66726;52.388;9.986;2023-04-28T13:09:21;14.90;86.20
77582;DHT22;66726;52.388;9.986;2023-04-28T13:11:54;14.90;86.40
77582;DHT22;66726;52.388;9.986;2023-04-28T13:14:27;14.90;86.00
77582;DHT22;66726;52.388;9.986;2023-04-28T13:17:00;14.80;86.60
77582;DHT22;66726;52.388;9.986;2023-04-28T13:19:32;14.80;86.90
77582;DHT22;66726;52.388;9.986;2023-04-28T13:22:03;14.80;87.30
77582;DHT22;66726;52.388;9.986;2023-04-28T13:24:36;14.80;87.60
77582;DHT22;66726;52.388;9.986;2023-04-28T13:27:08;14.70;86.70
77582;DHT22;66726;52.388;9.986;2023-04-28T13:29:41;14.70;87.30
77582;DHT22;66726;52.388;9.986;2023-04-28T13:32:13;14.60;87.50
77582;DHT22;66726;52.388;9.986;2023-04-28T13:34:45;14.60;87.50
77582;DHT22;66726;52.388;9.986;2023-04-28T13:37:17;14.50;87.00
77582;DHT22;66726;52.388;9.986;2023-04-28T13:39:49;14.50;87.10
77582;DHT22;66726;52.388;9.986;2023-04-28T13:42:21;14.50;87.70
77582;DHT22;66726;52.388;9.986;2023-04-28T13:44:54;14.50;87.70
77582;DHT22;66726;52.388;9.986;2023-04-28T13:47:26;14.50;88.20
77582;DHT22;66726;52.388;9.986;2023-04-28T13:49:59;14.50;88.40
77582;DHT22;66726;52.388;9.986;2023-04-28T13:52:31;14.50;88.40
77582;DHT22;66726;52.388;9.986;2023-04-28T13:55:03;14.50;88.60
77582;DHT22;66726;52.388;9.986;2023-04-28T13:57:37;14.50;88.10
77582;DHT22;66726;52.388;9.986;2023-04-28T14:00:12;14.50;88.00
77582;DHT22;66726;52.388;9.986;2023-04-28T14:02:44;14.40;87.10
77582;DHT22;66726;52.388;9.986;2023-04-28T14:05:17;14.40;88.10
77582;DHT22;66726;52.388;9.986;2023-04-28T14:07:49;14.40;88.40
77582;DHT22;66726;52.388;9.986;2023-04-28T14:10:21;14.50;88.40
77582;DHT22;66726;52.388;9.986;2023-04-28T14:12:53;14.40;89.30
77582;DHT22;66726;52.388;9.986;2023-04-28T14:15:26;14.40;89.00
77582;DHT22;66726;52.388;9.986;2023-04-28T14:17:58;14.40;89.20
77582;DHT22;66726;52.388;9.986;2023-04-28T14:20:31;14.40;90.00
77582;DHT22;66726;52.388;9.986;2023-04-28T14:23:03;14.40;90.10
77582;DHT22;66726;52.388;9.986;2023-04-28T14:25:35;14.40;90.40
77582;DHT22;66726;52.388;9.986;2023-04-28T14:28:07;14.40;90.50
77582;DHT22;66726;52.388;9.986;2023-04-28T14:30:40;14.40;90.70
77582;DHT22;66726;52.388;9.986;2023-04-28T14:33:12;14.40;90.30
77582;DHT22;66726;52.388;9.986;2023-04-28T14:35:44;14.40;90.30
77582;DHT22;66726;52.388;9.986;2023-04-28T14:38:16;14.40;90.50
77582;DHT22;66726;52.388;9.986;2023-04-28T14:40:48;14.40;90.70
77582;DHT22;66726;52.388;9.986;2023-04-28T14:43:21;14.40;90.60
77582;DHT22;66726;52.388;9.986;2023-04-28T14:45:55;14.30;90.50
77582;DHT22;66726;52.388;9.986;2023-04-28T14:48:27;14.30;90.70
77582;DHT22;66726;52.388;9.986;2023-04-28T14:50:59;14.30;90.90
77582;DHT22;66726;52.388;9.986;2023-04-28T14:53:31;14.30;91.00
77582;DHT22;66726;52.388;9.986;2023-04-28T14:56:05;14.30;90.90
77582;DHT22;66726;52.388;9.986;2023-04-28T14:58:46;14.30;91.30
77582;DHT22;66726;52.388;9.986;2023-04-28T15:01:19;14.30;91.60
77582;DHT22;66726;52.388;9.986;2023-04-28T15:03:50;14.30;91.00
77582;DHT22;66726;52.388;9.986;2023-04-28T15:06:23;14.20;90.70
77582;DHT22;66726;52.388;9.986;2023-04-28T15:08:55;14.20;90.90
77582;DHT22;66726;52.388;9.986;2023-04-28T15:11:27;14.30;91.20
77582;DHT22;66726;52.388;9.986;2023-04-28T15:13:59;14.20;91.30
77582;DHT22;66726;52.388;9.986;2023-04-28T15:16:32;14.20;91.20
77582;DHT22;66726;52.388;9.986;2023-04-28T15:19:04;14.30;91.40
77582;DHT22;66726;52.388;9.986;2023-04-28T15:21:36;14.20;91.50
77582;DHT22;66726;52.388;9.986;2023-04-28T15:24:08;14.20;91.50
77582;DHT22;66726;52.388;9.986;2023-04-28T15:26:40;14.20;91.80
77582;DHT22;66726;52.388;9.986;2023-04-28T15:29:12;14.20;91.70
77582;DHT22;66726;52.388;9.986;2023-04-28T15:31:45;14.20;91.80
77582;DHT22;66726;52.388;9.986;2023-04-28T15:34:18;14.30;91.90
77582;DHT22;66726;52.388;9.986;2023-04-28T15:36:50;14.30;92.00
77582;DHT22;66726;52.388;9.986;2023-04-28T15:39:22;14.40;92.10
77582;DHT22;66726;52.388;9.986;2023-04-28T15:41:55;14.30;92.10
77582;DHT22;66726;52.388;9.986;2023-04-28T15:44:27;14.30;92.30
77582;DHT22;66726;52.388;9.986;2023-04-28T15:47:01;14.30;92.40
77582;DHT22;66726;52.388;9.986;2023-04-28T15:49:32;14.30;92.40
77582;DHT22;66726;52.388;9.986;2023-04-28T15:52:05;14.30;92.50
77582;DHT22;66726;52.388;9.986;2023-04-28T15:54:37;14.40;92.70
77582;DHT22;66726;52.388;9.986;2023-04-28T15:57:08;14.40;92.60
77582;DHT22;66726;52.388;9.986;2023-04-28T15:59:41;14.50;92.80
77582;DHT22;66726;52.388;9.986;2023-04-28T16:02:14;14.40;92.80
77582;DHT22;66726;52.388;9.986;2023-04-28T16:04:46;14.40;92.80
77582;DHT22;66726;52.388;9.986;2023-04-28T16:07:18;14.40;92.80
77582;DHT22;66726;52.388;9.986;2023-04-28T16:09:50;14.50;93.10
77582;DHT22;66726;52.388;9.986;2023-04-28T16:12:22;14.40;93.10
77582;DHT22;66726;52.388;9.986;2023-04-28T16:14:54;14.50;93.60
77582;DHT22;66726;52.388;9.986;2023-04-28T16:17:27;14.50;93.10